This demonstration page uses our WeatherBlox Daily Observations layout. Learn more.

Left ArrowRight Arrow

Hourly Observations for June 19, 2016

Temp ( °F °C ) Dew Point ( °F °C ) Humidity (%) Winds ( mph kmh ) Pressure ( in mb ) Visibility ( mi km ) Precip ( " mm )
12:54 am 00:54 Clear 75 23.9 66 18.9 74 74 S 8 13 30.13 1020 10 16.0934 0 0
1:54 am 01:54 Clear 72 22.2 66 18.9 82 82 S 8 13 30.12 1020 10 16.0934 0 0
2:54 am 02:54 Clear 71 21.7 66 18.9 84 84 S 7 11 30.11 1020 10 16.0934 0 0
3:54 am 03:54 Clear 69 20.6 66 18.9 90 90 S 6 9 30.1 1019 10 16.0934 0 0
4:54 am 04:54 Clear 69 20.6 66 18.9 90 90 S 5 7 30.1 1019 10 16.0934 0 0
5:54 am 05:54 Clear 69 20.6 66 18.9 90 90 SSE 5 7 30.09 1019 10 16.0934 0 0
6:54 am 06:54 Sunny 71 21.7 67 19.4 87 87 SSE 7 11 30.09 1019 9 14.48406 0 0
7:54 am 07:54 Sunny 75 23.9 67 19.4 76 76 S 7 11 30.1 1019 10 16.0934 0 0
8:54 am 08:54 Sunny 79 26.1 68 20 69 69 S 10 17 30.1 1019 10 16.0934 0 0
9:54 am 09:54 Sunny 82 27.8 69 20.6 65 65 S 14 22 30.1 1019 10 16.0934 0 0
10:54 am 10:54 Sunny 85 29.4 71 21.7 63 63 S 14 22 30.09 1019 10 16.0934 0 0
11:54 am 11:54 Sunny 87 30.6 72 22.2 61 61 S 16 26 30.08 1019 10 16.0934 0 0
12:54 pm 12:54 Mostly Sunny 89 31.7 72 22.2 57 57 SSW 15 24 30.07 1018 10 16.0934 0 0
1:54 pm 13:54 Mostly Sunny 90 32.2 70 21.1 52 52 S 15 24 30.05 1018 10 16.0934 0 0
2:54 pm 14:54 Sunny 93 33.9 71 21.7 49 49 SSW 15 24 30.03 1017 10 16.0934 0 0
3:54 pm 15:54 Sunny 93 33.9 69 20.6 46 46 S 21 33 30.01 1016 10 16.0934 0 0
4:54 pm 16:54 Sunny 93 33.9 69 20.6 46 46 S 18 30 29.99 1016 10 16.0934 0 0
5:54 pm 17:54 Sunny 93 33.9 69 20.6 46 46 S 16 26 29.98 1015 10 16.0934 0 0
6:54 pm 18:54 Sunny 93 33.9 70 21.1 47 47 S 12 19 29.98 1015 10 16.0934 0 0
7:54 pm 19:54 Sunny 90 32.2 70 21.1 52 52 S 9 15 29.99 1016 10 16.0934 0 0
8:54 pm 20:54 Sunny 86 30 70 21.1 59 59 S 10 17 30 1016 10 16.0934 0 0
9:54 pm 21:54 Clear 83 28.3 71 21.7 67 67 S 12 19 30 1016 10 16.0934 0 0
10:54 pm 22:54 Clear 83 28.3 70 21.1 65 65 S 9 15 30.02 1017 10 16.0934 0 0
11:54 pm 23:54 Clear 78 25.6 71 21.7 79 79 S 9 15 30.03 1017 10 16.0934 0 0

Powered by AerisWeather